Time;durP1;ratioP1;P1;durP2;ratioP2;P2;SDS_P1;SDS_P2;PMS_P1;PMS_P2;Temp;Humidity;BMP_temperature;BMP_pressure;BME280_temperature;BME280_humidity;BME280_pressure;Samples;Min_cycle;Max_cycle;Signal;HPM_P1;HPM_P2
2021/12/22 00:00:21;;;;;;;71.85;19.30;;;;;;;;;;5018047;28;20519;-57
2021/12/22 00:02:46;;;;;;;59.30;18.83;;;;;;;;;;5014797;28;20138;-57
2021/12/22 00:05:26;;;;;;;53.75;18.38;;;;;;;;;;5015897;28;20111;-56
2021/12/22 00:07:52;;;;;;;48.47;17.27;;;;;;;;;;5017969;28;20029;-55
2021/12/22 00:10:19;;;;;;;71.10;18.70;;;;;;;;;;5012751;28;20071;-57
2021/12/22 00:12:46;;;;;;;63.85;18.42;;;;;;;;;;5018112;28;20030;-57
2021/12/22 00:15:13;;;;;;;52.42;18.60;;;;;;;;;;5011049;28;20695;-55
2021/12/22 00:17:38;;;;;;;58.20;19.88;;;;;;;;;;5014424;28;20030;-56
2021/12/22 00:20:07;;;;;;;59.50;17.35;;;;;;;;;;5018445;28;20029;-55
2021/12/22 00:22:32;;;;;;;62.13;17.35;;;;;;;;;;5015846;28;20469;-55
2021/12/22 00:24:58;;;;;;;73.20;18.23;;;;;;;;;;5015001;28;20033;-56
2021/12/22 00:27:24;;;;;;;59.53;19.00;;;;;;;;;;5016266;28;20034;-55
2021/12/22 00:29:51;;;;;;;54.58;16.48;;;;;;;;;;5016245;28;20037;-56
2021/12/22 00:32:17;;;;;;;51.55;17.83;;;;;;;;;;5018777;28;20477;-56
2021/12/22 00:34:46;;;;;;;61.88;18.40;;;;;;;;;;5017357;28;20086;-56
2021/12/22 00:37:13;;;;;;;62.15;20.30;;;;;;;;;;5012672;28;20555;-56
2021/12/22 00:39:39;;;;;;;44.10;17.98;;;;;;;;;;5019016;28;20045;-56
2021/12/22 00:42:05;;;;;;;56.40;17.63;;;;;;;;;;5014337;28;20033;-55
2021/12/22 00:44:31;;;;;;;60.53;19.92;;;;;;;;;;5016855;28;20072;-56
2021/12/22 00:46:56;;;;;;;66.55;18.80;;;;;;;;;;5019628;28;20034;-56
2021/12/22 00:49:22;;;;;;;64.78;18.92;;;;;;;;;;5012763;28;20042;-55
2021/12/22 00:51:47;;;;;;;61.78;18.73;;;;;;;;;;5012978;28;20059;-57
2021/12/22 00:54:13;;;;;;;66.55;19.75;;;;;;;;;;5014715;28;20384;-56
2021/12/22 00:56:38;;;;;;;66.45;18.90;;;;;;;;;;5013281;28;20496;-56
2021/12/22 00:59:04;;;;;;;64.88;18.35;;;;;;;;;;5010258;28;20045;-55
2021/12/22 01:01:30;;;;;;;50.25;20.15;;;;;;;;;;5015657;28;20022;-55
2021/12/22 01:03:56;;;;;;;53.78;19.75;;;;;;;;;;5012339;28;20045;-54
2021/12/22 01:06:22;;;;;;;69.43;19.40;;;;;;;;;;5015437;28;20321;-55
2021/12/22 01:08:48;;;;;;;55.60;20.20;;;;;;;;;;5014555;28;20033;-54
2021/12/22 01:11:14;;;;;;;68.53;20.92;;;;;;;;;;5017698;28;20033;-55
2021/12/22 01:13:40;;;;;;;61.13;21.58;;;;;;;;;;5015729;28;20462;-54
2021/12/22 01:16:05;;;;;;;73.43;18.98;;;;;;;;;;5021355;28;20483;-55
2021/12/22 01:18:33;;;;;;;51.85;18.98;;;;;;;;;;5014368;28;20060;-54
2021/12/22 01:21:22;;;;;;;50.97;18.13;;;;;;;;;;5014420;28;20121;-54
2021/12/22 01:26:44;;;;;;;66.25;20.15;;;;;;;;;;5025857;28;20057;-57
2021/12/22 01:29:11;;;;;;;65.53;20.88;;;;;;;;;;5012564;28;20041;-54
2021/12/22 01:31:38;;;;;;;59.22;18.92;;;;;;;;;;5017199;28;20043;-55
2021/12/22 01:34:04;;;;;;;61.42;19.10;;;;;;;;;;5015954;28;20030;-56
2021/12/22 01:36:30;;;;;;;62.40;19.90;;;;;;;;;;5018011;28;20496;-56
2021/12/22 01:38:55;;;;;;;51.92;17.05;;;;;;;;;;5021703;28;20121;-56
2021/12/22 01:41:21;;;;;;;43.47;17.23;;;;;;;;;;5008783;28;20412;-56
2021/12/22 01:43:48;;;;;;;58.10;18.33;;;;;;;;;;5015088;28;20091;-55
2021/12/22 01:49:09;;;;;;;44.90;16.85;;;;;;;;;;5012512;28;20042;-53
2021/12/22 01:49:14;;;;;;;62.03;19.30;;;;;;;;;;5013459;28;20040;-55
2021/12/22 01:51:56;;;;;;;50.22;18.13;;;;;;;;;;5012789;28;20420;-55
2021/12/22 01:54:24;;;;;;;;;;;;;;;;;;5014505;28;20018;-56
2021/12/22 01:56:52;;;;;;;60.17;15.90;;;;;;;;;;5011517;28;20031;-54
2021/12/22 01:59:20;;;;;;;54.55;18.83;;;;;;;;;;5017546;28;20064;-54
2021/12/22 02:01:46;;;;;;;56.95;16.17;;;;;;;;;;5014331;28;20041;-56
2021/12/22 02:04:13;;;;;;;52.33;17.63;;;;;;;;;;5016498;28;20080;-55
2021/12/22 02:06:44;;;;;;;55.60;18.27;;;;;;;;;;5010815;28;20142;-56
2021/12/22 02:09:12;;;;;;;71.07;20.13;;;;;;;;;;5008935;28;20475;-56
2021/12/22 02:11:37;;;;;;;55.67;17.33;;;;;;;;;;5016657;28;20092;-54
2021/12/22 02:14:05;;;;;;;51.88;18.42;;;;;;;;;;5014615;28;20461;-55
2021/12/22 02:16:36;;;;;;;51.15;17.90;;;;;;;;;;5010027;28;20042;-56
2021/12/22 02:19:04;;;;;;;34.10;14.55;;;;;;;;;;5016172;28;20484;-56
2021/12/22 02:21:34;;;;;;;61.75;17.45;;;;;;;;;;5020767;28;20148;-55
2021/12/22 02:24:00;;;;;;;57.55;17.05;;;;;;;;;;5012640;28;20039;-56
2021/12/22 02:26:36;;;;;;;53.55;18.08;;;;;;;;;;5014482;28;20037;-53
2021/12/22 02:29:08;;;;;;;41.00;16.75;;;;;;;;;;5009709;28;20038;-55
2021/12/22 02:31:40;;;;;;;41.72;15.38;;;;;;;;;;5015369;28;20022;-55
2021/12/22 02:34:06;;;;;;;61.65;17.90;;;;;;;;;;5014862;28;20364;-56
2021/12/22 02:36:38;;;;;;;46.85;14.82;;;;;;;;;;5014144;28;20531;-56
2021/12/22 02:39:05;;;;;;;49.22;17.08;;;;;;;;;;5015112;28;20096;-55
2021/12/22 02:41:32;;;;;;;50.50;18.55;;;;;;;;;;5015844;28;20033;-56
2021/12/22 02:43:59;;;;;;;59.20;18.95;;;;;;;;;;5012809;28;20022;-56
2021/12/22 02:46:28;;;;;;;61.78;18.08;;;;;;;;;;5016085;28;20038;-55
2021/12/22 02:48:54;;;;;;;43.70;17.10;;;;;;;;;;5013486;28;20025;-54
2021/12/22 02:51:21;;;;;;;55.90;17.98;;;;;;;;;;5014631;28;20103;-55
2021/12/22 02:58:59;;;;;;;58.67;18.52;;;;;;;;;;5018241;28;20643;-56
2021/12/22 03:01:52;;;;;;;50.00;18.20;;;;;;;;;;5015939;28;20041;-57
2021/12/22 03:04:21;;;;;;;59.97;18.85;;;;;;;;;;5016116;28;20092;-55
2021/12/22 03:06:55;;;;;;;69.47;19.58;;;;;;;;;;5019975;28;20068;-57
2021/12/22 03:09:22;;;;;;;65.65;19.55;;;;;;;;;;5010786;28;20594;-56
2021/12/22 03:11:48;;;;;;;52.40;18.58;;;;;;;;;;5016943;28;20030;-55
2021/12/22 03:14:15;;;;;;;77.85;20.70;;;;;;;;;;5019864;28;20108;-51
2021/12/22 03:16:44;;;;;;;49.25;14.80;;;;;;;;;;5017180;28;20057;-53
2021/12/22 03:19:16;;;;;;;62.42;18.67;;;;;;;;;;5021997;28;20038;-54
2021/12/22 03:21:42;;;;;;;67.35;22.10;;;;;;;;;;5016939;28;20459;-54
2021/12/22 03:24:09;;;;;;;65.50;19.60;;;;;;;;;;5018884;28;20038;-53
2021/12/22 03:26:41;;;;;;;58.60;17.73;;;;;;;;;;5015316;28;20052;-52
2021/12/22 03:29:08;;;;;;;52.67;17.48;;;;;;;;;;5017390;28;20041;-55
2021/12/22 03:31:34;;;;;;;75.78;22.02;;;;;;;;;;5018156;28;20116;-56
2021/12/22 03:34:00;;;;;;;67.05;21.73;;;;;;;;;;5019258;28;20484;-54
2021/12/22 03:36:25;;;;;;;58.75;20.42;;;;;;;;;;5018978;28;20623;-56
2021/12/22 03:38:51;;;;;;;70.85;22.02;;;;;;;;;;5015062;28;20713;-57
2021/12/22 03:41:17;;;;;;;70.70;23.15;;;;;;;;;;5020459;28;20033;-57
2021/12/22 03:43:42;;;;;;;82.63;24.08;;;;;;;;;;5018071;28;20034;-57
2021/12/22 03:46:07;;;;;;;58.35;22.42;;;;;;;;;;5019573;28;20022;-57
2021/12/22 03:48:33;;;;;;;87.78;25.02;;;;;;;;;;5017907;28;20475;-57
2021/12/22 03:50:59;;;;;;;61.92;21.42;;;;;;;;;;5015361;28;20556;-57
2021/12/22 03:53:24;;;;;;;77.80;21.50;;;;;;;;;;5018463;28;20120;-57
2021/12/22 03:55:50;;;;;;;71.95;19.70;;;;;;;;;;5014881;28;20101;-57
2021/12/22 03:58:16;;;;;;;68.25;22.30;;;;;;;;;;5014183;28;20084;-57
2021/12/22 04:00:43;;;;;;;79.03;24.02;;;;;;;;;;5014630;28;20460;-56
2021/12/22 04:03:15;;;;;;;65.18;20.23;;;;;;;;;;5015075;28;20124;-57
2021/12/22 04:05:42;;;;;;;70.03;21.85;;;;;;;;;;5014738;28;20061;-57
2021/12/22 04:08:08;;;;;;;62.35;19.92;;;;;;;;;;5010208;28;20412;-57
2021/12/22 04:10:33;;;;;;;71.88;21.30;;;;;;;;;;5017895;28;20037;-55
2021/12/22 04:12:59;;;;;;;72.57;21.55;;;;;;;;;;5015060;28;20034;-57
2021/12/22 04:15:26;;;;;;;64.78;20.48;;;;;;;;;;5013911;28;20572;-58
2021/12/22 04:17:52;;;;;;;60.47;19.45;;;;;;;;;;5018720;28;20044;-55
2021/12/22 04:20:18;;;;;;;62.42;18.75;;;;;;;;;;5012459;28;20512;-52
2021/12/22 04:22:44;;;;;;;71.03;19.92;;;;;;;;;;5017368;28;20029;-55
2021/12/22 04:25:10;;;;;;;66.50;19.33;;;;;;;;;;5022064;28;20033;-56
2021/12/22 04:27:37;;;;;;;64.95;19.15;;;;;;;;;;5014643;28;20311;-53
2021/12/22 04:30:05;;;;;;;61.90;19.92;;;;;;;;;;5019725;28;20068;-57
2021/12/22 04:32:30;;;;;;;63.40;20.55;;;;;;;;;;5018948;28;20064;-54
2021/12/22 04:34:56;;;;;;;67.65;20.88;;;;;;;;;;5017002;28;20511;-53
2021/12/22 04:37:23;;;;;;;67.93;18.70;;;;;;;;;;5009983;28;20460;-51
2021/12/22 04:39:48;;;;;;;60.88;19.90;;;;;;;;;;5015564;28;20040;-50
2021/12/22 04:42:16;;;;;;;74.78;22.15;;;;;;;;;;5017685;28;20034;-57
2021/12/22 04:44:41;;;;;;;77.35;21.05;;;;;;;;;;5020017;28;20504;-57
2021/12/22 04:47:07;;;;;;;71.55;18.35;;;;;;;;;;5015308;28;20030;-57
2021/12/22 04:49:32;;;;;;;63.80;22.50;;;;;;;;;;5016023;28;20068;-57
2021/12/22 04:52:00;;;;;;;64.60;20.15;;;;;;;;;;5015182;28;20108;-57
2021/12/22 04:56:55;;;;;;;74.93;21.45;;;;;;;;;;5014991;28;20029;-57
2021/12/22 04:59:21;;;;;;;86.30;22.08;;;;;;;;;;5011558;28;20067;-57
2021/12/22 05:01:46;;;;;;;71.60;21.90;;;;;;;;;;5015735;28;20030;-56
2021/12/22 05:04:12;;;;;;;97.90;23.02;;;;;;;;;;5014519;28;20113;-57
2021/12/22 05:06:37;;;;;;;63.95;20.55;;;;;;;;;;5017946;28;20053;-57
2021/12/22 05:09:04;;;;;;;60.90;18.95;;;;;;;;;;5015838;28;20079;-57
2021/12/22 05:11:30;;;;;;;73.78;20.40;;;;;;;;;;5014217;28;20041;-57
2021/12/22 05:13:55;;;;;;;71.35;21.10;;;;;;;;;;5012106;28;20049;-57
2021/12/22 05:16:21;;;;;;;82.72;21.13;;;;;;;;;;5019391;28;20526;-57
2021/12/22 05:21:14;;;;;;;59.70;19.23;;;;;;;;;;5016211;28;20036;-57
2021/12/22 05:23:39;;;;;;;85.32;21.92;;;;;;;;;;5014814;28;20041;-57
2021/12/22 05:26:05;;;;;;;79.82;22.00;;;;;;;;;;5012839;28;20033;-56
2021/12/22 05:28:30;;;;;;;77.95;20.83;;;;;;;;;;5012232;28;20039;-55
2021/12/22 05:30:56;;;;;;;76.97;21.05;;;;;;;;;;5017718;28;20038;-57
2021/12/22 05:33:21;;;;;;;70.55;20.90;;;;;;;;;;5017285;28;20032;-57
2021/12/22 05:35:47;;;;;;;71.95;20.80;;;;;;;;;;5013697;28;20045;-57
2021/12/22 05:38:13;;;;;;;77.78;21.65;;;;;;;;;;5015280;28;20065;-56
2021/12/22 05:40:38;;;;;;;76.38;22.08;;;;;;;;;;5011591;28;20484;-57
2021/12/22 05:43:04;;;;;;;72.80;21.38;;;;;;;;;;5018272;28;20029;-57
2021/12/22 05:45:29;;;;;;;78.15;20.10;;;;;;;;;;5018455;28;20036;-57
2021/12/22 05:47:55;;;;;;;74.82;20.25;;;;;;;;;;5017317;28;20045;-57
2021/12/22 05:50:22;;;;;;;80.13;21.15;;;;;;;;;;5014147;28;20033;-57
2021/12/22 05:52:48;;;;;;;74.50;20.17;;;;;;;;;;5013527;28;20017;-56
2021/12/22 05:55:14;;;;;;;62.33;20.02;;;;;;;;;;5009304;28;20110;-56
2021/12/22 05:57:40;;;;;;;63.97;19.55;;;;;;;;;;5010923;28;20459;-56
2021/12/22 06:00:07;;;;;;;56.92;16.42;;;;;;;;;;5018623;28;20048;-57
2021/12/22 06:02:32;;;;;;;73.80;22.23;;;;;;;;;;5016595;28;20105;-57
2021/12/22 06:04:58;;;;;;;56.75;19.67;;;;;;;;;;5016229;28;20033;-56
2021/12/22 06:07:23;;;;;;;79.28;20.13;;;;;;;;;;5009733;28;20080;-56
2021/12/22 06:09:49;;;;;;;66.03;18.00;;;;;;;;;;5012862;28;20041;-56
2021/12/22 06:12:14;;;;;;;88.10;21.13;;;;;;;;;;5015710;28;20481;-57
2021/12/22 06:14:40;;;;;;;71.90;21.27;;;;;;;;;;5018575;28;20423;-57
2021/12/22 06:17:06;;;;;;;75.03;19.98;;;;;;;;;;5012234;28;20432;-57
2021/12/22 06:19:31;;;;;;;77.05;21.70;;;;;;;;;;5016554;28;20487;-56
2021/12/22 06:21:57;;;;;;;66.85;18.75;;;;;;;;;;5018719;28;20033;-56
2021/12/22 06:24:22;;;;;;;68.93;19.10;;;;;;;;;;5014320;28;20068;-54
2021/12/22 06:26:48;;;;;;;53.85;18.02;;;;;;;;;;5009967;28;20030;-57
2021/12/22 06:29:14;;;;;;;80.65;20.50;;;;;;;;;;5011398;28;20041;-56
2021/12/22 06:31:39;;;;;;;75.32;19.55;;;;;;;;;;5014925;28;20173;-56
2021/12/22 06:34:05;;;;;;;91.07;20.35;;;;;;;;;;5014362;28;20025;-57
2021/12/22 06:36:31;;;;;;;65.40;18.90;;;;;;;;;;5015777;28;20488;-56
2021/12/22 06:38:57;;;;;;;75.68;21.48;;;;;;;;;;5015603;28;20037;-54
2021/12/22 06:41:23;;;;;;;58.38;18.17;;;;;;;;;;5014138;28;20705;-54
2021/12/22 06:43:48;;;;;;;82.90;21.17;;;;;;;;;;5012644;28;20060;-54
2021/12/22 06:46:14;;;;;;;68.95;19.02;;;;;;;;;;5016626;28;20049;-51
2021/12/22 06:48:39;;;;;;;74.82;21.35;;;;;;;;;;5022698;28;20325;-49
2021/12/22 06:51:06;;;;;;;89.18;21.40;;;;;;;;;;5019065;28;20073;-52
2021/12/22 06:53:34;;;;;;;79.20;21.35;;;;;;;;;;5018928;28;20029;-53
2021/12/22 06:56:00;;;;;;;66.60;19.83;;;;;;;;;;5020459;28;20034;-55
2021/12/22 06:58:26;;;;;;;78.97;20.10;;;;;;;;;;5017459;28;20445;-54
2021/12/22 07:00:52;;;;;;;77.20;21.08;;;;;;;;;;5015446;28;20052;-55
2021/12/22 07:03:17;;;;;;;66.45;19.90;;;;;;;;;;5019440;28;20059;-57
2021/12/22 07:05:43;;;;;;;71.85;22.67;;;;;;;;;;5026720;28;20045;-56
2021/12/22 07:08:08;;;;;;;57.78;17.70;;;;;;;;;;5019265;28;20034;-57
2021/12/22 07:10:34;;;;;;;80.88;18.50;;;;;;;;;;5021450;28;20049;-53
2021/12/22 07:13:00;;;;;;;79.57;19.85;;;;;;;;;;5023001;28;20037;-56
2021/12/22 07:15:25;;;;;;;53.30;15.90;;;;;;;;;;5029900;28;20034;-57
2021/12/22 07:17:51;;;;;;;56.67;19.35;;;;;;;;;;5023375;28;20099;-57
2021/12/22 07:20:18;;;;;;;93.38;20.13;;;;;;;;;;5020576;28;20033;-57
2021/12/22 07:22:43;;;;;;;76.18;19.42;;;;;;;;;;5022367;28;20034;-57
2021/12/22 07:25:10;;;;;;;69.22;18.13;;;;;;;;;;5019160;28;20042;-57
2021/12/22 07:27:36;;;;;;;60.58;17.50;;;;;;;;;;5020085;28;20036;-55
2021/12/22 07:30:03;;;;;;;65.10;19.55;;;;;;;;;;5014162;28;20038;-54
2021/12/22 07:32:29;;;;;;;73.78;17.13;;;;;;;;;;5019770;28;20097;-56
2021/12/22 07:35:06;;;;;;;59.47;17.50;;;;;;;;;;5020207;28;20168;-54
2021/12/22 07:37:58;;;;;;;62.30;19.10;;;;;;;;;;5023021;28;20033;-56
2021/12/22 07:40:23;;;;;;;70.68;20.98;;;;;;;;;;5017422;28;20026;-55
2021/12/22 07:42:49;;;;;;;53.33;19.02;;;;;;;;;;5013163;28;20444;-56
2021/12/22 07:45:14;;;;;;;60.60;19.42;;;;;;;;;;5013642;28;20113;-57
2021/12/22 07:47:40;;;;;;;70.63;17.70;;;;;;;;;;5014471;28;20489;-56
2021/12/22 07:50:07;;;;;;;55.95;17.77;;;;;;;;;;5016373;28;20084;-57
2021/12/22 07:52:32;;;;;;;51.20;17.05;;;;;;;;;;5016900;28;20048;-57
2021/12/22 07:54:59;;;;;;;60.55;16.52;;;;;;;;;;5020292;28;20053;-57
2021/12/22 07:57:24;;;;;;;54.38;16.17;;;;;;;;;;5014267;28;20404;-57
2021/12/22 07:59:50;;;;;;;59.95;17.67;;;;;;;;;;5012770;28;20049;-56
2021/12/22 08:02:16;;;;;;;49.20;14.32;;;;;;;;;;5012981;28;20033;-56
2021/12/22 08:04:41;;;;;;;63.90;17.23;;;;;;;;;;5016829;28;20033;-57
2021/12/22 08:07:07;;;;;;;56.25;17.23;;;;;;;;;;5011402;28;20042;-56
2021/12/22 08:09:35;;;;;;;53.10;15.00;;;;;;;;;;5015150;28;20034;-56
2021/12/22 08:12:04;;;;;;;49.35;16.60;;;;;;;;;;5012030;28;20128;-56
2021/12/22 08:14:38;;;;;;;48.60;15.55;;;;;;;;;;5011268;28;20024;-53
2021/12/22 08:17:05;;;;;;;54.08;15.32;;;;;;;;;;5013191;28;20501;-55
2021/12/22 08:19:31;;;;;;;53.00;17.88;;;;;;;;;;5012285;28;20026;-55
2021/12/22 08:21:57;;;;;;;64.65;17.20;;;;;;;;;;5014268;28;20040;-57
2021/12/22 08:24:23;;;;;;;66.43;16.52;;;;;;;;;;5013191;28;20052;-57
2021/12/22 08:26:50;;;;;;;61.25;17.13;;;;;;;;;;5013241;28;20040;-57
2021/12/22 08:29:16;;;;;;;63.03;15.50;;;;;;;;;;5013351;28;20026;-57
2021/12/22 08:31:41;;;;;;;56.28;16.15;;;;;;;;;;5014961;28;20072;-56
2021/12/22 08:34:09;;;;;;;45.10;13.93;;;;;;;;;;5011627;28;20030;-56
2021/12/22 08:39:19;;;;;;;44.00;13.88;;;;;;;;;;5015270;28;20119;-56
2021/12/22 08:41:47;;;;;;;44.05;15.43;;;;;;;;;;5018966;28;20025;-56
2021/12/22 08:44:16;;;;;;;41.85;13.13;;;;;;;;;;5013450;28;20038;-56
2021/12/22 08:46:44;;;;;;;60.58;15.35;;;;;;;;;;5018911;28;20025;-56
2021/12/22 08:49:09;;;;;;;50.13;13.90;;;;;;;;;;5012826;28;20045;-55
2021/12/22 08:51:35;;;;;;;62.63;15.40;;;;;;;;;;5021902;28;20025;-56
2021/12/22 08:54:01;;;;;;;49.53;13.95;;;;;;;;;;5014181;28;20503;-56
2021/12/22 08:56:29;;;;;;;47.38;13.98;;;;;;;;;;5010909;28;20044;-56
2021/12/22 08:58:55;;;;;;;35.97;12.48;;;;;;;;;;5010045;28;20068;-57
2021/12/22 09:01:21;;;;;;;36.78;12.13;;;;;;;;;;5013020;28;20053;-57
2021/12/22 09:03:47;;;;;;;44.22;12.57;;;;;;;;;;5016682;28;20435;-57
2021/12/22 09:06:13;;;;;;;51.33;12.80;;;;;;;;;;5013567;28;20073;-57
2021/12/22 09:08:41;;;;;;;50.42;11.07;;;;;;;;;;5012670;28;20117;-57
2021/12/22 09:11:06;;;;;;;57.72;13.07;;;;;;;;;;5009548;28;20041;-57
2021/12/22 09:13:32;;;;;;;47.08;12.15;;;;;;;;;;5011563;28;20030;-56
2021/12/22 09:15:57;;;;;;;47.05;12.27;;;;;;;;;;5009897;28;20057;-57
2021/12/22 09:18:23;;;;;;;46.85;11.48;;;;;;;;;;5005840;28;20029;-57
2021/12/22 09:20:49;;;;;;;41.03;11.68;;;;;;;;;;5014614;28;20036;-57
2021/12/22 09:23:15;;;;;;;36.08;9.75;;;;;;;;;;5012729;28;20025;-57
2021/12/22 09:25:40;;;;;;;61.22;11.30;;;;;;;;;;5015880;28;20129;-56
2021/12/22 09:28:07;;;;;;;40.33;10.73;;;;;;;;;;5012246;28;20435;-57
2021/12/22 09:30:36;;;;;;;51.35;13.23;;;;;;;;;;5012520;28;20025;-56
2021/12/22 09:33:06;;;;;;;43.33;11.75;;;;;;;;;;5015734;28;20079;-56
2021/12/22 09:35:32;;;;;;;55.75;13.15;;;;;;;;;;5014761;28;20017;-56
2021/12/22 09:37:58;;;;;;;54.75;11.48;;;;;;;;;;5014651;28;20044;-56
2021/12/22 09:40:23;;;;;;;53.10;11.90;;;;;;;;;;5013321;28;20030;-57
2021/12/22 09:42:49;;;;;;;73.60;12.20;;;;;;;;;;5013189;28;20083;-56
2021/12/22 09:45:16;;;;;;;55.15;13.50;;;;;;;;;;5007817;28;20052;-56
2021/12/22 09:48:02;;;;;;;41.25;11.82;;;;;;;;;;5015399;28;20029;-57
2021/12/22 09:50:45;;;;;;;43.17;12.13;;;;;;;;;;5013721;28;20037;-56
2021/12/22 09:53:13;;;;;;;52.50;12.70;;;;;;;;;;5005580;28;20523;-55
2021/12/22 09:55:38;;;;;;;36.15;11.32;;;;;;;;;;5005649;28;20036;-55
2021/12/22 09:58:05;;;;;;;47.38;13.40;;;;;;;;;;5009742;28;20041;-57
2021/12/22 10:00:34;;;;;;;45.20;12.63;;;;;;;;;;5013274;28;20451;-56
2021/12/22 10:03:00;;;;;;;40.90;11.70;;;;;;;;;;5011068;28;20036;-55
2021/12/22 10:05:25;;;;;;;47.50;13.00;;;;;;;;;;5015404;28;20062;-53
2021/12/22 10:08:14;;;;;;;50.33;13.90;;;;;;;;;;5012659;28;20029;-53
2021/12/22 10:10:46;;;;;;;37.90;12.27;;;;;;;;;;5015462;28;20176;-54
2021/12/22 10:13:13;;;;;;;;;;;;;;;;;;5015408;28;20037;-53
2021/12/22 10:15:40;;;;;;;51.25;12.02;;;;;;;;;;5012432;28;19913;-56
2021/12/22 10:18:08;;;;;;;46.30;11.82;;;;;;;;;;5010568;28;20460;-54
2021/12/22 10:20:34;;;;;;;47.88;12.68;;;;;;;;;;5010023;28;20025;-54
2021/12/22 10:22:59;;;;;;;47.97;12.13;;;;;;;;;;5011731;28;20408;-55
2021/12/22 10:25:31;;;;;;;40.80;11.80;;;;;;;;;;5011212;28;20041;-53
2021/12/22 10:28:02;;;;;;;54.75;12.88;;;;;;;;;;5008371;28;20058;-55
2021/12/22 10:30:35;;;;;;;48.65;11.43;;;;;;;;;;5006058;28;20025;-56
2021/12/22 10:33:21;;;;;;;45.53;12.02;;;;;;;;;;5010597;28;20031;-57
2021/12/22 10:35:53;;;;;;;43.03;12.23;;;;;;;;;;5014517;28;20034;-56
2021/12/22 10:38:21;;;;;;;34.65;10.88;;;;;;;;;;5015117;28;20105;-56
2021/12/22 10:40:50;;;;;;;37.33;10.80;;;;;;;;;;5012549;28;20048;-57
2021/12/22 10:43:26;;;;;;;34.45;10.85;;;;;;;;;;5011668;28;20514;-57
2021/12/22 10:45:55;;;;;;;49.47;10.60;;;;;;;;;;5010461;28;20030;-57
2021/12/22 10:51:10;;;;;;;49.85;11.73;;;;;;;;;;5013788;28;20275;-54
2021/12/22 10:53:42;;;;;;;53.22;12.20;;;;;;;;;;5009535;28;20041;-57
2021/12/22 10:56:07;;;;;;;48.40;12.05;;;;;;;;;;5009614;28;20387;-57
2021/12/22 10:58:34;;;;;;;35.63;11.15;;;;;;;;;;5011644;28;20033;-57
2021/12/22 11:01:17;;;;;;;45.17;12.05;;;;;;;;;;5008788;28;20053;-57
2021/12/22 11:03:51;;;;;;;55.47;11.93;;;;;;;;;;5008100;28;20064;-57
2021/12/22 11:06:25;;;;;;;43.08;12.70;;;;;;;;;;5012801;28;20044;-56
2021/12/22 11:08:55;;;;;;;36.35;11.68;;;;;;;;;;5011944;28;20117;-57
2021/12/22 11:11:21;;;;;;;51.22;13.88;;;;;;;;;;5009984;28;20029;-56
2021/12/22 11:14:04;;;;;;;46.55;13.82;;;;;;;;;;5012293;28;20042;-56
2021/12/22 11:16:30;;;;;;;34.40;11.80;;;;;;;;;;5011632;28;20107;-56
2021/12/22 11:19:09;;;;;;;29.08;10.35;;;;;;;;;;5015873;28;20512;-57
2021/12/22 11:21:36;;;;;;;46.95;12.35;;;;;;;;;;5008544;28;20161;-55
2021/12/22 11:24:02;;;;;;;37.75;10.93;;;;;;;;;;5014973;28;20059;-57
2021/12/22 11:26:29;;;;;;;38.92;13.00;;;;;;;;;;5010231;28;20025;-57
2021/12/22 11:28:54;;;;;;;45.45;10.48;;;;;;;;;;5010347;28;20037;-57
2021/12/22 11:31:20;;;;;;;38.15;12.23;;;;;;;;;;5012091;28;20658;-57
2021/12/22 11:33:46;;;;;;;43.83;11.02;;;;;;;;;;5014542;28;20042;-57
2021/12/22 11:36:13;;;;;;;37.95;10.73;;;;;;;;;;5012653;28;20026;-56
2021/12/22 11:38:40;;;;;;;40.50;11.43;;;;;;;;;;5014071;28;20033;-55
2021/12/22 11:41:18;;;;;;;29.55;11.00;;;;;;;;;;5013074;28;20045;-55
2021/12/22 11:43:45;;;;;;;25.00;10.23;;;;;;;;;;5015998;28;20496;-56
2021/12/22 11:46:12;;;;;;;19.38;9.15;;;;;;;;;;5013481;28;20046;-55
2021/12/22 11:48:39;;;;;;;27.70;8.48;;;;;;;;;;5015157;28;20059;-55
2021/12/22 11:51:27;;;;;;;29.67;10.27;;;;;;;;;;5011940;28;20516;-56
2021/12/22 11:53:55;;;;;;;28.48;10.52;;;;;;;;;;5012499;28;20091;-56
2021/12/22 11:56:39;;;;;;;30.92;9.98;;;;;;;;;;5015497;28;20447;-54
2021/12/22 11:59:06;;;;;;;43.33;11.82;;;;;;;;;;5013858;28;20091;-56
2021/12/22 12:01:32;;;;;;;37.63;10.35;;;;;;;;;;5013034;28;20189;-55
2021/12/22 12:04:14;;;;;;;32.08;10.90;;;;;;;;;;5016962;28;20544;-55
2021/12/22 12:06:51;;;;;;;37.10;11.85;;;;;;;;;;5012921;28;20045;-57
2021/12/22 12:09:22;;;;;;;35.08;10.95;;;;;;;;;;5017106;28;20045;-55
2021/12/22 12:11:52;;;;;;;48.88;11.38;;;;;;;;;;5014885;28;20026;-54
2021/12/22 12:23:20;;;;;;;49.47;12.05;;;;;;;;;;5008836;28;20045;-56
2021/12/22 12:25:46;;;;;;;44.38;10.95;;;;;;;;;;5015109;28;20076;-55
2021/12/22 12:28:17;;;;;;;41.72;12.90;;;;;;;;;;5017715;28;20310;-54
2021/12/22 12:30:50;;;;;;;38.10;12.13;;;;;;;;;;5015644;28;20488;-53
2021/12/22 12:33:24;;;;;;;41.97;11.48;;;;;;;;;;5013818;28;20488;-53
2021/12/22 12:35:53;;;;;;;44.75;13.48;;;;;;;;;;5016353;28;20108;-54
2021/12/22 12:38:25;;;;;;;47.70;13.27;;;;;;;;;;5017231;28;20113;-55
2021/12/22 12:41:11;;;;;;;54.08;14.02;;;;;;;;;;5012330;28;20140;-54
2021/12/22 12:43:44;;;;;;;42.40;11.05;;;;;;;;;;5011375;28;20033;-57
2021/12/22 12:46:27;;;;;;;39.38;11.77;;;;;;;;;;5011727;28;20130;-56
2021/12/22 12:49:05;;;;;;;39.50;11.15;;;;;;;;;;5016037;28;20147;-55
2021/12/22 12:51:40;;;;;;;41.47;11.35;;;;;;;;;;5012099;28;20045;-66
2021/12/22 12:54:09;;;;;;;45.35;12.52;;;;;;;;;;5005242;28;20029;-57
2021/12/22 12:56:43;;;;;;;39.72;10.45;;;;;;;;;;5017937;28;20404;-56
2021/12/22 12:59:10;;;;;;;49.05;13.25;;;;;;;;;;5009911;28;20033;-56
2021/12/22 13:01:51;;;;;;;49.92;13.45;;;;;;;;;;5013528;28;20029;-56
2021/12/22 13:04:23;;;;;;;45.97;13.40;;;;;;;;;;5016602;28;20033;-57
2021/12/22 13:07:13;;;;;;;50.25;13.07;;;;;;;;;;5015926;28;20056;-55
2021/12/22 13:09:46;;;;;;;49.15;14.15;;;;;;;;;;5015030;28;20079;-52
2021/12/22 13:12:18;;;;;;;40.50;12.68;;;;;;;;;;5013783;28;20128;-54
2021/12/22 13:17:39;;;;;;;33.38;11.45;;;;;;;;;;5011204;28;20045;-53
2021/12/22 13:20:06;;;;;;;41.35;11.75;;;;;;;;;;5011693;28;20532;-53
2021/12/22 13:22:35;;;;;;;30.85;10.32;;;;;;;;;;5014402;28;20029;-54
2021/12/22 13:25:11;;;;;;;21.63;9.57;;;;;;;;;;5014958;28;20065;-54
2021/12/22 13:27:42;;;;;;;28.55;8.93;;;;;;;;;;5014564;28;20029;-55
2021/12/22 13:30:07;;;;;;;26.40;8.45;;;;;;;;;;5016028;28;20033;-54
2021/12/22 13:32:34;;;;;;;19.30;8.30;;;;;;;;;;5012098;28;20400;-53
2021/12/22 13:34:59;;;;;;;36.53;9.60;;;;;;;;;;5006791;28;20113;-54
2021/12/22 13:37:30;;;;;;;23.55;8.27;;;;;;;;;;5008918;28;20483;-54
2021/12/22 13:39:56;;;;;;;31.58;9.43;;;;;;;;;;5010205;28;20042;-53
2021/12/22 13:42:21;;;;;;;30.75;9.23;;;;;;;;;;5010776;28;20083;-54
2021/12/22 13:44:47;;;;;;;28.20;10.05;;;;;;;;;;5010369;28;20124;-53
2021/12/22 13:47:12;;;;;;;19.88;8.82;;;;;;;;;;5007204;28;20558;-55
2021/12/22 13:49:38;;;;;;;22.95;8.50;;;;;;;;;;5011833;28;20101;-55
2021/12/22 13:52:04;;;;;;;18.23;7.90;;;;;;;;;;5015541;28;20105;-54
2021/12/22 13:54:34;;;;;;;19.50;8.30;;;;;;;;;;5011750;28;20037;-53
2021/12/22 13:57:02;;;;;;;19.60;7.85;;;;;;;;;;5012599;28;20044;-55
2021/12/22 13:59:30;;;;;;;28.50;8.07;;;;;;;;;;5007872;28;20033;-54
2021/12/22 14:01:58;;;;;;;23.83;7.95;;;;;;;;;;5014060;28;20115;-53
2021/12/22 14:04:33;;;;;;;20.90;7.07;;;;;;;;;;5008254;28;20021;-53
2021/12/22 14:07:07;;;;;;;19.55;6.75;;;;;;;;;;5014526;28;20254;-55
2021/12/22 14:09:40;;;;;;;16.58;7.28;;;;;;;;;;5011994;28;20443;-52
2021/12/22 14:12:24;;;;;;;16.77;7.13;;;;;;;;;;5017753;28;20424;-50
2021/12/22 14:14:52;;;;;;;25.08;7.82;;;;;;;;;;5013085;28;20546;-54
2021/12/22 14:17:27;;;;;;;18.65;7.88;;;;;;;;;;5010429;28;20041;-51
2021/12/22 14:19:53;;;;;;;19.98;7.15;;;;;;;;;;5017587;28;20090;-50
2021/12/22 14:22:32;;;;;;;18.20;7.15;;;;;;;;;;5009672;28;20034;-50
2021/12/22 14:25:13;;;;;;;26.95;8.82;;;;;;;;;;5008597;28;20131;-54
2021/12/22 14:27:54;;;;;;;19.38;7.20;;;;;;;;;;5006832;28;20025;-52
2021/12/22 14:30:36;;;;;;;26.27;7.13;;;;;;;;;;5006870;28;20037;-50
2021/12/22 14:33:12;;;;;;;21.90;6.90;;;;;;;;;;5009395;28;20030;-53
2021/12/22 14:35:44;;;;;;;18.02;6.72;;;;;;;;;;5011349;28;20358;-53
2021/12/22 14:38:16;;;;;;;20.17;5.40;;;;;;;;;;5017364;28;20499;-52
2021/12/22 14:40:54;;;;;;;23.23;5.35;;;;;;;;;;5012217;28;20115;-55
2021/12/22 14:43:20;;;;;;;15.73;5.18;;;;;;;;;;5013299;28;20037;-50
2021/12/22 14:45:51;;;;;;;17.23;5.13;;;;;;;;;;5013236;28;20033;-53
2021/12/22 14:48:30;;;;;;;15.35;4.47;;;;;;;;;;5008031;28;20078;-54
2021/12/22 14:50:57;;;;;;;10.52;4.53;;;;;;;;;;5009175;28;20041;-53
2021/12/22 14:53:35;;;;;;;9.75;3.63;;;;;;;;;;5007047;28;20775;-54
2021/12/22 14:56:08;;;;;;;13.70;4.65;;;;;;;;;;5012347;28;20021;-54